createdAt,value
2018-08-09T00:01:07.686Z,3.60
2018-08-09T00:03:36.385Z,3.60
2018-08-09T00:06:05.078Z,3.73
2018-08-09T00:08:33.773Z,3.63
2018-08-09T00:11:02.483Z,3.53
2018-08-09T00:13:31.220Z,3.50
2018-08-09T00:16:00.287Z,3.47
2018-08-09T00:18:29.153Z,3.50
2018-08-09T00:20:58.070Z,3.70
2018-08-09T00:23:26.788Z,3.60
2018-08-09T00:25:55.540Z,3.70
2018-08-09T00:28:24.273Z,3.77
2018-08-09T00:30:52.932Z,3.93
2018-08-09T00:33:21.663Z,4.13
2018-08-09T00:35:50.403Z,4.20
2018-08-09T00:38:19.139Z,4.47
2018-08-09T00:40:47.829Z,3.90
2018-08-09T00:43:16.591Z,4.27
2018-08-09T00:45:45.291Z,4.23
2018-08-09T00:48:14.018Z,4.30
2018-08-09T00:50:42.781Z,4.00
2018-08-09T00:53:11.478Z,3.87
2018-08-09T00:55:40.111Z,4.03
2018-08-09T00:58:08.882Z,4.40
2018-08-09T01:00:37.530Z,4.63
2018-08-09T01:03:06.247Z,3.83
2018-08-09T01:05:35.001Z,4.00
2018-08-09T01:08:03.760Z,3.90
2018-08-09T01:10:32.474Z,4.10
2018-08-09T01:13:01.088Z,3.70
2018-08-09T01:15:29.715Z,4.37
2018-08-09T01:17:58.427Z,4.00
2018-08-09T01:20:27.221Z,5.80
2018-08-09T01:22:55.891Z,4.63
2018-08-09T01:25:24.521Z,4.30
2018-08-09T01:27:53.148Z,5.00
2018-08-09T01:30:22.068Z,5.17
2018-08-09T01:32:50.681Z,4.97
2018-08-09T01:35:19.342Z,5.33
2018-08-09T01:37:48.006Z,5.07
2018-08-09T01:40:16.624Z,5.20
2018-08-09T01:42:56.235Z,4.80
2018-08-09T01:45:24.847Z,4.70
2018-08-09T01:47:53.441Z,4.80
2018-08-09T01:50:22.111Z,4.50
2018-08-09T01:52:50.698Z,4.90
2018-08-09T01:55:19.364Z,4.73
2018-08-09T01:57:48.091Z,4.57
2018-08-09T02:00:16.730Z,5.13
2018-08-09T02:02:45.373Z,6.43
2018-08-09T02:05:14.561Z,5.47
2018-08-09T02:07:43.224Z,5.57
2018-08-09T02:10:11.900Z,6.10
2018-08-09T02:12:40.569Z,6.50
2018-08-09T02:15:09.245Z,5.97
2018-08-09T02:17:37.901Z,5.43
2018-08-09T02:20:06.489Z,5.63
2018-08-09T02:22:35.179Z,5.47
2018-08-09T02:25:03.843Z,5.73
2018-08-09T02:27:32.456Z,6.20
2018-08-09T02:30:01.137Z,6.00
2018-08-09T02:32:29.752Z,6.47
2018-08-09T02:34:58.438Z,6.50
2018-08-09T02:37:27.037Z,5.97
2018-08-09T02:39:55.777Z,7.47
2018-08-09T02:42:24.449Z,7.53
2018-08-09T02:44:53.085Z,9.10
2018-08-09T02:47:21.837Z,9.40
2018-08-09T02:49:50.665Z,9.20
2018-08-09T02:52:19.303Z,9.77
2018-08-09T02:54:47.961Z,10.13
2018-08-09T02:57:16.601Z,10.53
2018-08-09T02:59:45.246Z,11.17
2018-08-09T03:02:13.892Z,10.37
2018-08-09T03:04:42.528Z,10.23
2018-08-09T03:07:11.090Z,10.50
2018-08-09T03:09:39.725Z,10.50
2018-08-09T03:12:08.372Z,10.40
2018-08-09T03:14:36.998Z,9.80
2018-08-09T03:17:05.688Z,10.63
2018-08-09T03:19:34.289Z,10.53
2018-08-09T03:22:02.885Z,10.43
2018-08-09T03:24:31.579Z,11.20
2018-08-09T03:27:00.261Z,11.27
2018-08-09T03:29:28.946Z,10.60
2018-08-09T03:31:57.611Z,12.20
2018-08-09T03:34:26.312Z,10.83
2018-08-09T03:36:55.022Z,9.90
2018-08-09T03:39:23.736Z,9.30
2018-08-09T03:41:52.346Z,8.97
2018-08-09T03:44:20.977Z,8.40
2018-08-09T03:46:49.631Z,8.93
2018-08-09T03:49:18.226Z,8.70
2018-08-09T03:51:46.881Z,7.80
2018-08-09T03:54:15.602Z,8.20
2018-08-09T03:56:44.141Z,8.20
2018-08-09T03:59:12.914Z,6.93
2018-08-09T04:01:41.524Z,7.30
2018-08-09T04:04:10.163Z,6.97
2018-08-09T04:06:38.760Z,6.50
2018-08-09T04:09:09.421Z,6.67
2018-08-09T04:11:38.083Z,6.60
2018-08-09T04:14:06.702Z,6.30
2018-08-09T04:16:35.381Z,5.70
2018-08-09T04:19:03.997Z,5.40
2018-08-09T04:21:32.560Z,6.00
2018-08-09T04:24:01.237Z,6.40
2018-08-09T04:26:30.070Z,7.37
2018-08-09T04:28:58.669Z,6.70
2018-08-09T04:31:27.271Z,7.30
2018-08-09T04:33:56.069Z,6.63
2018-08-09T04:36:24.679Z,6.83
2018-08-09T04:38:53.301Z,7.23
2018-08-09T04:41:21.931Z,6.63
2018-08-09T04:43:50.529Z,7.00
2018-08-09T04:46:19.270Z,6.27
2018-08-09T04:48:47.881Z,6.20
2018-08-09T04:51:16.546Z,6.13
2018-08-09T04:53:45.166Z,6.03
2018-08-09T04:56:17.700Z,5.60
2018-08-09T04:58:46.463Z,5.33
2018-08-09T05:01:15.698Z,5.60
2018-08-09T05:03:44.355Z,5.30
2018-08-09T05:06:12.948Z,5.77
2018-08-09T05:08:41.582Z,5.20
2018-08-09T05:11:10.211Z,5.43
2018-08-09T05:13:38.803Z,5.60
2018-08-09T05:16:07.366Z,5.53
2018-08-09T05:18:36.032Z,6.07
2018-08-09T05:21:04.664Z,5.40
2018-08-09T05:23:33.318Z,5.87
2018-08-09T05:26:01.913Z,6.00
2018-08-09T05:28:30.708Z,6.23
2018-08-09T05:30:59.356Z,6.17
2018-08-09T05:33:28.008Z,6.60
2018-08-09T05:35:56.668Z,6.57
2018-08-09T05:38:25.876Z,7.03
2018-08-09T05:40:54.540Z,6.53
2018-08-09T05:43:23.373Z,7.07
2018-08-09T05:45:51.955Z,6.47
2018-08-09T05:48:20.625Z,6.77
2018-08-09T05:50:49.281Z,6.87
2018-08-09T05:53:18.183Z,7.10
2018-08-09T05:55:46.751Z,7.33
2018-08-09T05:58:15.340Z,8.00
2018-08-09T06:00:43.922Z,7.63
2018-08-09T06:03:12.794Z,7.83
2018-08-09T06:05:41.414Z,7.67
2018-08-09T06:08:10.038Z,8.20
2018-08-09T06:10:39.668Z,8.30
2018-08-09T06:13:08.361Z,8.30
2018-08-09T06:15:36.988Z,8.90
2018-08-09T06:18:06.314Z,9.50
2018-08-09T06:20:34.892Z,9.37
2018-08-09T06:23:03.528Z,8.77
2018-08-09T06:25:32.171Z,9.60
2018-08-09T06:28:00.781Z,10.00
2018-08-09T06:30:29.383Z,9.47
2018-08-09T06:32:58.005Z,10.70
2018-08-09T06:35:26.722Z,10.60
2018-08-09T06:37:55.362Z,10.03
2018-08-09T06:40:24.043Z,9.63
2018-08-09T06:42:52.613Z,10.50
2018-08-09T06:45:21.273Z,10.30
2018-08-09T06:47:49.900Z,11.00
2018-08-09T06:50:18.524Z,10.70
2018-08-09T06:52:47.195Z,11.20
2018-08-09T06:55:17.021Z,10.47
2018-08-09T06:57:45.619Z,11.83
2018-08-09T07:00:14.230Z,12.03
2018-08-09T07:02:43.103Z,11.80
2018-08-09T07:05:11.724Z,11.13
2018-08-09T07:07:40.877Z,11.80
2018-08-09T07:10:10.150Z,11.80
2018-08-09T07:12:38.947Z,11.90
2018-08-09T07:15:11.752Z,11.40
2018-08-09T07:17:40.718Z,11.33
2018-08-09T07:20:10.025Z,10.63
2018-08-09T07:22:39.968Z,11.37
2018-08-09T07:25:08.809Z,10.03
2018-08-09T07:27:37.733Z,10.20
2018-08-09T07:30:08.656Z,10.13
2018-08-09T07:32:37.415Z,9.50
2018-08-09T07:35:06.756Z,9.53
2018-08-09T07:37:35.485Z,9.27
2018-08-09T07:40:04.758Z,8.77
2018-08-09T07:42:33.354Z,8.67
2018-08-09T07:45:02.004Z,8.23
2018-08-09T07:47:30.661Z,6.23
2018-08-09T07:49:59.389Z,6.27
2018-08-09T07:52:27.998Z,5.70
2018-08-09T07:54:56.664Z,5.37
2018-08-09T07:57:25.621Z,5.70
2018-08-09T07:59:54.316Z,5.13
2018-08-09T08:02:23.027Z,5.33
2018-08-09T08:04:53.607Z,6.50
2018-08-09T08:07:22.637Z,5.17
2018-08-09T08:09:53.427Z,5.37
2018-08-09T08:12:22.231Z,5.90
2018-08-09T08:14:51.045Z,6.53
2018-08-09T08:17:20.037Z,6.63
2018-08-09T08:19:48.825Z,5.93
2018-08-09T08:22:17.617Z,6.50
2018-08-09T08:24:46.344Z,5.50
2018-08-09T08:27:18.443Z,5.33
2018-08-09T08:29:48.400Z,5.30
2018-08-09T08:32:17.171Z,5.13
2018-08-09T08:34:46.108Z,4.53
2018-08-09T08:37:17.279Z,5.07
2018-08-09T08:39:47.037Z,4.60
2018-08-09T08:42:20.329Z,4.87
2018-08-09T08:44:50.468Z,4.93
2018-08-09T08:47:19.407Z,4.37
2018-08-09T08:49:49.326Z,4.00
2018-08-09T08:52:20.605Z,3.67
2018-08-09T08:54:49.521Z,3.33
2018-08-09T08:57:19.162Z,4.57
2018-08-09T08:59:47.954Z,4.90
2018-08-09T09:02:16.850Z,5.07
2018-08-09T09:04:46.510Z,5.13
2018-08-09T09:07:15.218Z,5.93
2018-08-09T09:09:44.624Z,5.17
2018-08-09T09:12:13.226Z,6.00
2018-08-09T09:14:42.045Z,5.97
2018-08-09T09:17:10.839Z,6.10
2018-08-09T09:19:41.971Z,5.67
2018-08-09T09:22:10.975Z,6.23
2018-08-09T09:24:40.203Z,6.30
2018-08-09T09:27:09.115Z,6.00
2018-08-09T09:29:39.423Z,6.40
2018-08-09T09:32:08.265Z,7.00
2018-08-09T09:34:37.806Z,9.10
2018-08-09T09:37:06.555Z,9.27
2018-08-09T09:39:35.199Z,8.30
2018-08-09T09:42:03.961Z,8.70
2018-08-09T09:44:32.615Z,9.13
2018-08-09T09:47:01.292Z,9.07
2018-08-09T09:49:29.954Z,9.77
2018-08-09T09:51:58.568Z,10.07
2018-08-09T09:54:27.068Z,10.23
2018-08-09T09:56:55.584Z,10.43
2018-08-09T09:59:24.150Z,10.57
2018-08-09T10:01:52.826Z,10.30
2018-08-09T10:04:21.360Z,10.73
2018-08-09T10:06:49.920Z,10.93
2018-08-09T10:09:18.430Z,10.63
2018-08-09T10:11:46.973Z,9.57
2018-08-09T10:14:15.557Z,10.67
2018-08-09T10:16:44.116Z,9.80
2018-08-09T10:19:12.669Z,9.73
2018-08-09T10:21:41.207Z,10.37
2018-08-09T10:24:09.695Z,10.90
2018-08-09T10:26:38.289Z,11.77
2018-08-09T10:29:06.873Z,12.00
2018-08-09T10:31:35.465Z,12.27
2018-08-09T10:34:04.126Z,12.70
2018-08-09T10:36:32.658Z,13.67
2018-08-09T10:39:01.159Z,13.27
2018-08-09T10:41:29.824Z,14.13
2018-08-09T10:43:58.444Z,13.83
2018-08-09T10:46:27.072Z,13.40
2018-08-09T10:48:55.715Z,13.67
2018-08-09T10:51:24.348Z,13.27
2018-08-09T10:53:52.970Z,13.50
2018-08-09T10:56:21.559Z,12.43
2018-08-09T10:58:50.491Z,12.37
2018-08-09T11:01:19.101Z,12.33
2018-08-09T11:03:47.713Z,12.80
2018-08-09T11:06:16.253Z,11.80
2018-08-09T11:08:44.851Z,12.20
2018-08-09T11:11:14.804Z,12.43
2018-08-09T11:13:44.575Z,13.70
2018-08-09T11:16:14.154Z,12.67
2018-08-09T11:18:43.586Z,13.83
2018-08-09T11:21:12.284Z,13.17
2018-08-09T11:23:40.928Z,13.60
2018-08-09T11:26:09.607Z,13.37
2018-08-09T11:28:38.212Z,13.80
2018-08-09T11:31:06.860Z,14.23
2018-08-09T11:33:35.379Z,15.20
2018-08-09T11:36:04.026Z,15.57
2018-08-09T11:38:32.624Z,14.57
2018-08-09T11:41:01.297Z,13.93
2018-08-09T11:43:29.980Z,14.47
2018-08-09T11:45:58.597Z,15.27
2018-08-09T11:48:27.241Z,15.60
2018-08-09T11:50:55.861Z,15.33
2018-08-09T11:53:24.443Z,15.97
2018-08-09T11:55:53.079Z,16.20
2018-08-09T11:58:23.406Z,16.77
2018-08-09T12:00:52.018Z,16.33
2018-08-09T12:03:20.614Z,16.53
2018-08-09T12:05:49.217Z,16.77
2018-08-09T12:08:17.824Z,20.30
2018-08-09T12:10:46.354Z,25.47
2018-08-09T12:13:14.997Z,26.13
2018-08-09T12:15:43.612Z,27.03
2018-08-09T12:18:12.215Z,30.23
2018-08-09T12:20:40.787Z,31.73
2018-08-09T12:23:09.374Z,25.67
2018-08-09T12:25:37.989Z,27.77
2018-08-09T12:28:06.593Z,27.93
2018-08-09T12:30:35.217Z,28.80
2018-08-09T12:33:04.226Z,28.80
2018-08-09T12:35:32.821Z,27.07
2018-08-09T12:38:01.454Z,25.80
2018-08-09T12:40:30.263Z,26.33
2018-08-09T12:42:58.877Z,26.03
2018-08-09T12:45:27.563Z,25.60
2018-08-09T12:47:56.105Z,26.27
2018-08-09T12:50:24.768Z,21.87
2018-08-09T12:52:53.315Z,22.77
2018-08-09T12:55:21.917Z,19.30
2018-08-09T12:59:13.612Z,19.73
2018-08-09T13:01:42.280Z,17.53
2018-08-09T13:04:10.851Z,16.70
2018-08-09T13:06:39.538Z,18.20
2018-08-09T13:09:09.634Z,18.53
2018-08-09T13:11:38.170Z,19.33
2018-08-09T13:14:06.980Z,20.33
2018-08-09T13:16:35.870Z,22.13
2018-08-09T13:19:04.640Z,22.57
2018-08-09T13:21:33.307Z,19.33
2018-08-09T13:24:01.983Z,20.53
2018-08-09T13:26:30.570Z,26.17
2018-08-09T13:28:59.217Z,24.37
2018-08-09T13:31:27.840Z,23.73
2018-08-09T13:33:56.440Z,24.60
2018-08-09T13:36:25.036Z,23.37
2018-08-09T13:38:53.658Z,23.83
2018-08-09T13:41:22.227Z,24.03
2018-08-09T13:43:50.770Z,23.80
2018-08-09T13:46:19.383Z,24.43
2018-08-09T13:48:48.138Z,24.43
2018-08-09T13:51:16.740Z,21.93
2018-08-09T13:53:45.339Z,24.93
2018-08-09T13:56:13.955Z,23.67
2018-08-09T13:58:42.487Z,23.80
2018-08-09T14:01:11.039Z,24.37
2018-08-09T14:03:39.641Z,24.70
2018-08-09T14:06:08.172Z,25.37
2018-08-09T14:08:36.807Z,23.50
2018-08-09T14:11:05.389Z,22.53
2018-08-09T14:13:33.942Z,23.70
2018-08-09T14:16:02.529Z,23.90
2018-08-09T14:18:31.418Z,23.77
2018-08-09T14:20:59.960Z,24.53
2018-08-09T14:23:28.476Z,24.17
2018-08-09T14:25:57.074Z,25.67
2018-08-09T14:28:25.645Z,24.97
2018-08-09T14:30:54.232Z,23.53
2018-08-09T14:33:22.742Z,23.67
2018-08-09T14:35:51.337Z,24.00
2018-08-09T14:38:19.886Z,23.83
2018-08-09T14:40:48.459Z,24.37
2018-08-09T14:43:17.037Z,25.20
2018-08-09T14:45:45.625Z,24.97
2018-08-09T14:48:14.211Z,25.20
2018-08-09T14:50:42.823Z,25.43
2018-08-09T14:53:11.403Z,25.80
2018-08-09T14:55:39.974Z,25.07
2018-08-09T14:58:08.562Z,25.30
2018-08-09T15:00:37.258Z,24.37
2018-08-09T15:03:05.926Z,24.60
2018-08-09T15:05:34.535Z,24.97
2018-08-09T15:08:03.359Z,25.40
2018-08-09T15:10:32.159Z,24.57
2018-08-09T15:13:00.784Z,24.63
2018-08-09T15:15:29.460Z,25.30
2018-08-09T15:17:58.083Z,25.13
2018-08-09T15:20:26.682Z,24.10
2018-08-09T15:22:55.628Z,23.93
2018-08-09T15:25:24.298Z,25.53
2018-08-09T15:27:52.925Z,24.00
2018-08-09T15:30:21.578Z,25.10
2018-08-09T15:32:51.027Z,25.27
2018-08-09T15:35:20.797Z,25.97
2018-08-09T15:37:49.347Z,26.20
2018-08-09T15:40:17.956Z,27.47
2018-08-09T15:42:46.622Z,29.33
2018-08-09T15:45:15.782Z,29.77
2018-08-09T15:47:44.512Z,30.93
2018-08-09T15:50:16.412Z,32.57
2018-08-09T15:52:45.071Z,33.40
2018-08-09T15:55:14.656Z,33.40
2018-08-09T15:57:43.299Z,34.00
2018-08-09T16:00:14.631Z,32.23
2018-08-09T16:02:43.564Z,35.83
2018-08-09T16:05:12.106Z,34.20
2018-08-09T16:07:40.699Z,34.97
2018-08-09T16:10:11.695Z,36.33
2018-08-09T16:12:40.670Z,36.43
2018-08-09T16:15:10.908Z,36.20
2018-08-09T16:17:39.445Z,37.00
2018-08-09T16:20:09.152Z,37.83
2018-08-09T16:22:37.688Z,36.87
2018-08-09T16:25:09.434Z,35.37
2018-08-09T16:27:38.200Z,36.27
2018-08-09T16:30:12.898Z,36.90
2018-08-09T16:32:41.820Z,35.57
2018-08-09T16:35:10.986Z,32.13
2018-08-09T16:37:40.084Z,30.50
2018-08-09T16:40:10.254Z,27.90
2018-08-09T16:42:39.090Z,28.27
2018-08-09T16:45:08.649Z,25.67
2018-08-09T16:47:37.512Z,19.83
2018-08-09T16:50:07.315Z,17.90
2018-08-09T16:52:35.977Z,16.50
2018-08-09T16:55:05.417Z,14.77
2018-08-09T16:57:34.098Z,10.57
2018-08-09T17:00:02.731Z,9.63
2018-08-09T17:02:31.337Z,8.63
2018-08-09T17:05:00.025Z,6.40
2018-08-09T17:07:28.689Z,5.30
2018-08-09T17:09:57.427Z,4.40
2018-08-09T17:12:26.100Z,3.93
2018-08-09T17:14:54.810Z,4.17
2018-08-09T17:17:23.479Z,3.87
2018-08-09T17:19:52.206Z,3.47
2018-08-09T17:22:21.084Z,3.60
2018-08-09T17:24:49.774Z,3.63
2018-08-09T17:27:18.469Z,4.00
2018-08-09T17:29:47.292Z,4.40
2018-08-09T17:32:15.920Z,4.27
2018-08-09T17:34:44.924Z,5.03
2018-08-09T17:37:14.352Z,4.83
2018-08-09T17:39:43.022Z,5.17
2018-08-09T17:42:11.933Z,5.40
2018-08-09T17:44:40.564Z,6.27
2018-08-09T17:47:09.404Z,6.43
2018-08-09T17:49:38.405Z,6.33
2018-08-09T17:52:07.203Z,6.53
2018-08-09T17:54:35.919Z,7.03
2018-08-09T17:57:04.960Z,6.37
2018-08-09T17:59:33.727Z,4.53
2018-08-09T18:02:03.341Z,3.50
2018-08-09T18:04:32.110Z,3.20
2018-08-09T18:07:00.770Z,3.40
2018-08-09T18:09:29.712Z,3.10
2018-08-09T18:11:58.639Z,3.60
2018-08-09T18:14:27.431Z,3.20
2018-08-09T18:16:56.138Z,3.17
2018-08-09T18:19:25.013Z,2.93
2018-08-09T18:21:53.895Z,2.30
2018-08-09T18:24:22.711Z,2.47
2018-08-09T18:26:51.447Z,2.60
2018-08-09T18:29:20.153Z,2.33
2018-08-09T18:31:49.054Z,2.57
2018-08-09T18:34:17.841Z,2.40
2018-08-09T18:36:46.528Z,2.50
2018-08-09T18:39:15.397Z,2.40
2018-08-09T18:41:44.333Z,2.63
2018-08-09T18:44:13.012Z,2.33
2018-08-09T18:46:41.667Z,2.37
2018-08-09T18:49:10.326Z,2.73
2018-08-09T18:51:39.038Z,2.40
2018-08-09T18:54:07.980Z,2.40
2018-08-09T18:56:36.642Z,2.50
2018-08-09T18:59:05.292Z,2.57
2018-08-09T19:01:34.005Z,2.93
2018-08-09T19:04:02.636Z,3.23
2018-08-09T19:06:31.405Z,2.80
2018-08-09T19:09:00.099Z,3.00
2018-08-09T19:11:28.763Z,3.37
2018-08-09T19:13:57.973Z,3.50
2018-08-09T19:16:26.617Z,3.80
2018-08-09T19:18:55.297Z,4.03
2018-08-09T19:21:24.038Z,4.30
2018-08-09T19:23:52.997Z,4.60
2018-08-09T19:26:21.767Z,5.23
2018-08-09T19:28:50.505Z,4.93
2018-08-09T19:31:19.221Z,5.23
2018-08-09T19:33:47.877Z,5.40
2018-08-09T19:36:16.716Z,6.33
2018-08-09T19:38:45.444Z,6.90
2018-08-09T19:41:14.266Z,6.53
2018-08-09T19:43:43.052Z,7.50
2018-08-09T19:46:11.802Z,7.60
2018-08-09T19:48:40.396Z,7.70
2018-08-09T19:51:09.159Z,8.47
2018-08-09T19:53:38.178Z,8.47
2018-08-09T19:56:07.106Z,9.30
2018-08-09T19:58:35.887Z,10.13
2018-08-09T20:01:04.781Z,10.33
2018-08-09T20:03:33.415Z,10.70
2018-08-09T20:06:02.342Z,10.60
2018-08-09T20:08:31.043Z,11.83
2018-08-09T20:10:59.762Z,12.50
2018-08-09T20:13:28.608Z,12.97
2018-08-09T20:15:57.316Z,10.97
2018-08-09T20:18:25.971Z,9.77
2018-08-09T20:20:54.801Z,8.63
2018-08-09T20:23:23.500Z,9.30
2018-08-09T20:25:52.234Z,9.73
2018-08-09T20:28:20.883Z,10.97
2018-08-09T20:30:49.507Z,10.30
2018-08-09T20:33:18.251Z,10.43
2018-08-09T20:35:46.884Z,11.70
2018-08-09T20:38:15.509Z,12.17
2018-08-09T20:40:44.261Z,11.53
2018-08-09T20:43:12.981Z,11.97
2018-08-09T20:45:41.735Z,11.70
2018-08-09T20:48:10.417Z,11.00
2018-08-09T20:50:39.104Z,9.73
2018-08-09T20:53:07.785Z,10.63
2018-08-09T20:55:36.539Z,11.23
2018-08-09T20:58:05.329Z,12.00
2018-08-09T21:00:35.397Z,11.80
2018-08-09T21:03:04.070Z,10.90
2018-08-09T21:05:35.176Z,9.97
2018-08-09T21:08:03.932Z,8.67
2018-08-09T21:10:32.608Z,7.17
2018-08-09T21:13:01.403Z,7.30
2018-08-09T21:15:30.407Z,7.37
2018-08-09T21:17:59.006Z,6.10
2018-08-09T21:20:27.692Z,5.73
2018-08-09T21:23:01.643Z,5.93
2018-08-09T21:25:34.271Z,6.60
2018-08-09T21:28:03.757Z,6.17
2018-08-09T21:30:32.440Z,6.33
2018-08-09T21:33:12.600Z,6.73
2018-08-09T21:38:44.360Z,6.83
2018-08-09T21:41:59.230Z,6.43
2018-08-09T21:44:29.499Z,6.40
2018-08-09T21:46:58.384Z,6.00
2018-08-09T21:49:28.443Z,6.57
2018-08-09T21:51:57.717Z,5.20
2018-08-09T21:54:27.086Z,5.27
2018-08-09T21:56:56.580Z,4.67
2018-08-09T21:59:25.969Z,4.03
2018-08-09T22:01:55.079Z,4.20
2018-08-09T22:04:23.806Z,4.20
2018-08-09T22:09:05.311Z,3.77
2018-08-09T22:11:39.401Z,3.40
2018-08-09T22:14:13.213Z,3.20
2018-08-09T22:16:47.140Z,2.20
2018-08-09T22:19:21.051Z,2.10
2018-08-09T22:21:54.979Z,1.77
2018-08-09T22:24:23.546Z,1.70
2018-08-09T22:26:52.089Z,1.47
2018-08-09T22:29:20.677Z,1.20
2018-08-09T22:31:49.445Z,1.23
2018-08-09T22:34:18.023Z,1.20
2018-08-09T22:36:46.616Z,1.10
2018-08-09T22:39:15.184Z,1.20
2018-08-09T22:41:43.798Z,1.10
2018-08-09T22:44:12.362Z,1.00
2018-08-09T22:46:40.924Z,1.27
2018-08-09T22:49:09.448Z,1.20
2018-08-09T22:51:38.076Z,1.20
2018-08-09T22:54:07.178Z,1.20
2018-08-09T22:56:35.775Z,1.40
2018-08-09T22:59:04.655Z,1.40
2018-08-09T23:01:33.309Z,1.30
2018-08-09T23:04:01.911Z,1.60
2018-08-09T23:06:31.223Z,1.70
2018-08-09T23:08:59.845Z,1.70
2018-08-09T23:11:28.447Z,1.70
2018-08-09T23:13:57.030Z,1.97
2018-08-09T23:16:25.596Z,2.50
2018-08-09T23:18:54.179Z,2.60
2018-08-09T23:21:22.746Z,2.60
2018-08-09T23:23:51.300Z,3.30
2018-08-09T23:26:19.878Z,3.63
2018-08-09T23:28:48.404Z,3.43
2018-08-09T23:31:17.013Z,3.40
2018-08-09T23:33:45.553Z,3.10
2018-08-09T23:36:14.094Z,3.00
2018-08-09T23:38:42.681Z,3.40
2018-08-09T23:41:11.281Z,2.70
2018-08-09T23:43:39.881Z,3.20
2018-08-09T23:46:08.495Z,3.30
2018-08-09T23:48:37.051Z,3.50
2018-08-09T23:51:05.580Z,3.50
2018-08-09T23:53:34.128Z,3.17
2018-08-09T23:56:02.641Z,3.30
2018-08-09T23:58:31.238Z,3.20
